Time;durP1;ratioP1;P1;durP2;ratioP2;P2;SDS_P1;SDS_P2;PMS_P1;PMS_P2;Temp;Humidity;BMP_temperature;BMP_pressure;BME280_temperature;BME280_humidity;BME280_pressure;Samples;Min_cycle;Max_cycle;Signal;HPM_P1;HPM_P2
2021/11/27 00:00:17;;;;;;;5.72;3.40;;;5.30;99.90;;;5.02;98.39;99283.59;4104731;28;20031;-72
2021/11/27 00:02:18;;;;;;;6.45;3.00;;;5.30;99.90;;;4.98;97.93;99288.34;4089044;29;20036;-73
2021/11/27 00:04:20;;;;;;;5.07;2.63;;;5.40;99.90;;;4.82;98.27;99301.28;4105754;28;20039;-72
2021/11/27 00:06:24;;;;;;;8.93;3.17;;;5.50;99.90;;;4.82;99.16;99324.81;4104679;28;20032;-72
2021/11/27 00:08:26;;;;;;;6.13;2.63;;;5.40;99.90;;;4.99;99.02;99315.25;4116495;28;20023;-72
2021/11/27 00:10:29;;;;;;;6.90;2.28;;;5.50;99.90;;;5.14;97.98;99305.88;4120553;28;20039;-72
2021/11/27 00:12:30;;;;;;;6.75;2.50;;;5.60;99.90;;;5.09;97.92;99300.28;4120553;28;20078;-72
2021/11/27 00:14:33;;;;;;;6.25;2.40;;;5.70;99.90;;;5.06;98.38;99305.84;4120481;28;20058;-72
2021/11/27 00:16:35;;;;;;;5.05;2.00;;;5.70;99.90;;;5.14;98.08;99303.25;4136484;28;20030;-72
2021/11/27 00:18:36;;;;;;;5.20;1.98;;;5.60;99.90;;;5.34;95.71;99309.91;4136573;28;20086;-72
2021/11/27 00:20:50;;;;;;;6.55;2.00;;;5.70;99.90;;;5.10;95.19;99306.34;4121728;28;20034;-72
2021/11/27 00:22:51;;;;;;;7.03;2.35;;;5.60;99.90;;;4.80;96.39;99291.97;4106568;28;20031;-72
2021/11/27 00:24:52;;;;;;;5.40;2.42;;;5.60;99.90;;;4.82;95.47;99293.47;4104065;28;20027;-72
2021/11/27 00:26:53;;;;;;;4.72;2.55;;;5.50;99.90;;;4.89;94.69;99270.16;4088206;29;20504;-72
2021/11/27 00:28:54;;;;;;;3.90;2.25;;;5.50;99.90;;;4.94;93.05;99260.88;4105634;28;20027;-72
2021/11/27 00:31:00;;;;;;;5.30;2.15;;;5.40;99.90;;;4.81;94.41;99254.41;4104308;28;20039;-72
2021/11/27 00:33:02;;;;;;;6.38;2.45;;;5.40;99.90;;;4.88;92.65;99252.81;4104186;28;20031;-72
2021/11/27 00:35:04;;;;;;;6.47;2.65;;;5.40;99.90;;;4.88;92.44;99245.81;4088476;29;20039;-72
2021/11/27 00:37:05;;;;;;;6.63;2.63;;;5.40;99.90;;;4.91;91.77;99229.81;4105479;28;20050;-72
2021/11/27 00:39:07;;;;;;;6.00;2.83;;;5.40;99.90;;;4.87;91.99;99238.94;4120077;28;20034;-72
2021/11/27 00:41:09;;;;;;;4.07;2.42;;;5.40;99.90;;;4.94;92.35;99239.97;4088033;29;20031;-72
2021/11/27 00:43:11;;;;;;;5.22;2.55;;;5.40;99.90;;;4.95;92.06;99233.78;4104325;28;20038;-72
2021/11/27 00:45:16;;;;;;;6.38;2.67;;;5.40;99.90;;;4.86;91.98;99223.44;4104202;28;20055;-72
2021/11/27 00:47:17;;;;;;;;;;;5.30;99.90;;;4.79;92.35;99214.56;4104550;28;20086;-72
2021/11/27 00:49:18;;;;;;;7.97;1.80;;;5.30;99.90;;;4.94;90.97;99219.06;4105238;28;19960;-72
2021/11/27 00:51:22;;;;;;;6.80;2.40;;;5.40;99.90;;;4.96;91.51;99219.72;4105580;28;20050;-72
2021/11/27 00:53:24;;;;;;;3.17;2.30;;;5.30;99.90;;;4.89;91.90;99223.94;4120019;28;20121;-72
2021/11/27 00:55:25;;;;;;;5.25;2.03;;;5.30;99.90;;;4.90;92.76;99227.34;4104002;28;20521;-72
2021/11/27 00:57:26;;;;;;;6.30;2.70;;;5.30;99.90;;;4.95;92.12;99219.88;4103766;28;20027;-72
2021/11/27 00:59:27;;;;;;;7.82;2.58;;;5.30;99.90;;;4.86;92.24;99221.66;4105221;28;20106;-72
2021/11/27 01:01:31;;;;;;;7.70;2.13;;;5.30;99.90;;;5.02;91.46;99228.72;4105109;28;20061;-72
2021/11/27 01:03:37;;;;;;;4.45;2.10;;;5.30;99.90;;;5.16;91.03;99235.97;4103924;28;20023;-72
2021/11/27 01:05:39;;;;;;;5.82;2.10;;;5.40;99.90;;;5.02;89.89;99241.78;4103761;28;20054;-72
2021/11/27 01:07:41;;;;;;;7.57;2.70;;;5.40;99.90;;;4.96;91.81;99247.63;4108459;28;20521;-72
2021/11/27 01:09:42;;;;;;;4.30;2.15;;;5.40;99.90;;;5.21;90.03;99272.09;4119774;28;20030;-72
2021/11/27 01:11:51;;;;;;;4.30;2.90;;;5.50;99.90;;;5.05;90.83;99267.59;4119528;28;20058;-72
2021/11/27 01:13:55;;;;;;;4.47;2.40;;;6.10;99.90;;;5.00;90.47;99265.47;4125890;28;20077;-72
2021/11/27 01:15:56;;;;;;;8.05;2.67;;;5.70;99.90;;;4.95;92.46;99267.75;4119806;28;20476;-72
2021/11/27 01:17:58;;;;;;;3.03;2.00;;;5.60;99.90;;;4.59;91.95;99281.06;4119523;28;20043;-72
2021/11/27 01:20:00;;;;;;;5.93;2.25;;;5.50;99.90;;;4.56;92.23;99297.03;4103462;28;20462;-72
2021/11/27 01:22:09;;;;;;;10.27;2.40;;;5.50;99.90;;;4.41;93.96;99297.59;4128269;28;20022;-72
2021/11/27 01:24:15;;;;;;;3.75;1.88;;;5.40;99.90;;;4.51;94.24;99294.88;4120758;28;20023;-72
2021/11/27 01:26:16;;;;;;;5.70;2.22;;;5.40;99.90;;;4.73;94.55;99304.00;4120438;28;20027;-72
2021/11/27 01:28:20;;;;;;;6.35;2.22;;;5.40;99.90;;;4.67;94.36;99302.84;4103231;28;20027;-72
2021/11/27 01:30:21;;;;;;;4.55;2.38;;;5.40;99.90;;;4.35;95.75;99279.13;4120683;28;20042;-72
2021/11/27 01:32:22;;;;;;;6.88;3.10;;;5.40;99.90;;;4.06;97.21;99295.00;4120439;28;20109;-72
2021/11/27 01:34:23;;;;;;;7.85;2.13;;;5.70;99.90;;;4.12;97.19;99283.97;4103411;28;20031;-72
2021/11/27 01:36:24;;;;;;;5.90;2.05;;;5.20;99.90;;;3.89;98.14;99274.97;4119578;28;20031;-72
2021/11/27 01:38:25;;;;;;;4.70;2.17;;;5.00;99.90;;;3.80;99.44;99257.63;4120400;28;20089;-72
2021/11/27 01:40:28;;;;;;;5.93;2.30;;;4.90;99.90;;;3.50;100.00;99240.53;4103132;28;20550;-72
2021/11/27 01:42:29;;;;;;;4.05;2.58;;;4.80;99.90;;;3.71;99.12;99222.00;4102992;28;20027;-72
2021/11/27 01:44:30;;;;;;;4.57;1.65;;;4.70;99.90;;;3.58;98.71;99198.09;4120191;28;20106;-72
2021/11/27 01:46:33;;;;;;;7.80;2.47;;;4.60;99.90;;;3.53;99.29;99185.50;4103235;28;20098;-72
2021/11/27 01:48:35;;;;;;;3.50;2.30;;;4.50;99.90;;;3.43;97.59;99150.06;4103313;28;20067;-72
2021/11/27 01:50:53;;;;;;;5.03;1.92;;;4.40;99.90;;;3.61;99.02;99158.69;4120166;28;20073;-72
2021/11/27 01:52:54;;;;;;;8.32;3.08;;;4.30;99.90;;;3.39;98.53;99159.97;4120242;28;20101;-72
2021/11/27 01:54:55;;;;;;;5.88;2.22;;;4.30;99.90;;;3.47;99.89;99164.41;4120252;28;20049;-72
2021/11/27 01:57:00;;;;;;;4.65;2.10;;;4.20;99.90;;;3.60;99.99;99175.31;4119934;28;20125;-72
2021/11/27 01:59:03;;;;;;;6.43;2.53;;;4.20;99.90;;;3.74;97.61;99186.03;4103241;28;20055;-72
2021/11/27 02:01:09;;;;;;;5.53;2.10;;;4.20;99.90;;;3.87;95.61;99183.03;4120268;28;20113;-72
2021/11/27 02:03:10;;;;;;;6.15;1.98;;;4.20;99.90;;;3.80;94.25;99180.19;4103105;28;20459;-72
2021/11/27 02:05:12;;;;;;;7.57;4.00;;;4.20;99.90;;;3.49;94.87;99197.22;4086886;29;20110;-72
2021/11/27 02:07:15;;;;;;;6.07;2.05;;;4.20;99.90;;;3.41;96.10;99206.72;4134598;28;20022;-72
2021/11/27 02:09:22;;;;;;;10.63;3.00;;;4.20;99.90;;;3.28;96.36;99223.56;4124485;28;20041;-72
2021/11/27 02:11:29;;;;;;;7.72;2.58;;;4.10;99.90;;;3.41;96.71;99219.75;4134473;28;20042;-73
2021/11/27 02:13:30;;;;;;;6.75;2.45;;;4.10;99.90;;;3.62;94.95;99222.88;4135844;28;20041;-72
2021/11/27 02:15:31;;;;;;;5.43;2.03;;;4.10;99.90;;;3.45;95.56;99216.72;4135805;28;20080;-72
2021/11/27 02:17:33;;;;;;;5.03;2.15;;;4.20;99.90;;;3.48;95.67;99226.03;4118795;28;20031;-72
2021/11/27 02:19:34;;;;;;;4.88;2.30;;;4.20;99.90;;;3.48;96.41;99226.84;4134734;28;20050;-72
2021/11/27 02:21:35;;;;;;;4.57;2.47;;;4.20;99.90;;;3.39;95.46;99214.69;4135866;28;20113;-72
2021/11/27 02:23:37;;;;;;;6.65;2.40;;;4.20;99.90;;;3.37;96.08;99201.00;4134525;28;20027;-72
2021/11/27 02:25:38;;;;;;;5.78;2.42;;;4.20;99.90;;;3.34;96.17;99183.84;4136005;28;20026;-72
2021/11/27 02:27:50;;;;;;;4.20;2.47;;;4.20;99.90;;;3.39;96.98;99195.63;4135725;28;20069;-72
2021/11/27 02:29:51;;;;;;;6.50;2.45;;;4.40;99.90;;;3.32;97.11;99200.59;4118589;28;20027;-72
2021/11/27 02:31:54;;;;;;;5.05;2.40;;;4.20;99.90;;;3.43;95.92;99208.22;4118669;28;20031;-72
2021/11/27 02:33:56;;;;;;;4.45;2.13;;;4.20;99.90;;;3.40;96.25;99207.72;4118625;28;20035;-72
2021/11/27 02:35:57;;;;;;;5.45;2.78;;;4.20;99.90;;;3.33;97.22;99207.47;4135781;28;20030;-72
2021/11/27 02:37:59;;;;;;;4.68;2.20;;;4.10;99.90;;;3.30;96.92;99181.72;4118398;28;20081;-72
2021/11/27 02:40:00;;;;;;;6.57;1.80;;;4.20;99.90;;;3.56;95.94;99232.13;4134339;28;20169;-72
2021/11/27 02:42:04;;;;;;;3.20;2.08;;;4.10;99.90;;;3.46;95.77;99225.38;4134484;28;20041;-72
2021/11/27 02:44:08;;;;;;;5.15;2.08;;;4.20;99.90;;;3.62;95.06;99223.72;4118602;28;20023;-72
2021/11/27 02:46:09;;;;;;;;;;;4.30;99.90;;;3.62;93.80;99202.03;4103213;28;20027;-72
2021/11/27 02:48:10;;;;;;;5.47;2.53;;;4.40;99.90;;;3.94;92.66;99227.59;4135758;28;19910;-72
2021/11/27 02:50:13;;;;;;;3.25;2.03;;;4.50;99.90;;;3.96;91.58;99221.25;4135803;28;20080;-72
2021/11/27 02:52:14;;;;;;;2.65;1.85;;;4.60;99.90;;;3.78;92.83;99213.44;4102518;28;20485;-72
2021/11/27 02:54:16;;;;;;;2.83;2.08;;;4.60;99.90;;;3.65;92.02;99206.94;4118180;28;20031;-72
2021/11/27 02:56:17;;;;;;;4.97;2.08;;;4.60;99.90;;;3.94;92.56;99204.94;4150567;28;20034;-72
2021/11/27 02:58:18;;;;;;;3.42;2.03;;;4.70;99.90;;;4.08;92.52;99211.38;4135724;28;20490;-72
2021/11/27 03:00:21;;;;;;;3.38;2.10;;;4.70;99.90;;;4.18;91.52;99218.13;4118332;28;20085;-72
2021/11/27 03:02:22;;;;;;;6.97;2.37;;;4.80;99.90;;;4.05;91.30;99214.31;4102249;28;20034;-72
2021/11/27 03:04:30;;;;;;;3.78;2.17;;;4.80;99.90;;;3.96;93.26;99225.63;4150779;28;20456;-72
2021/11/27 03:06:33;;;;;;;5.45;2.70;;;4.90;99.90;;;4.07;92.55;99236.66;4102361;28;20023;-72
2021/11/27 03:08:36;;;;;;;6.53;2.50;;;4.90;99.90;;;4.17;93.02;99247.00;4118478;28;20511;-72
2021/11/27 03:10:38;;;;;;;4.35;2.00;;;4.90;99.90;;;4.14;93.06;99239.47;4118410;28;20114;-72
2021/11/27 03:12:39;;;;;;;5.10;2.33;;;4.90;99.90;;;4.22;94.48;99239.53;4118227;28;20031;-72
2021/11/27 03:14:40;;;;;;;5.63;2.30;;;5.00;99.90;;;4.33;93.16;99239.31;4135400;28;20521;-72
2021/11/27 03:16:42;;;;;;;3.92;2.30;;;6.00;99.90;;;4.35;95.26;99226.91;4135463;28;20023;-72
2021/11/27 03:18:46;;;;;;;11.35;2.80;;;5.00;99.90;;;4.06;95.07;99208.13;4118165;28;20549;-72
2021/11/27 03:20:48;;;;;;;8.25;2.63;;;5.00;99.90;;;4.03;97.43;99211.84;4135455;28;20029;-72
2021/11/27 03:22:49;;;;;;;4.10;2.35;;;4.90;99.90;;;4.12;97.48;99190.03;4103551;28;20110;-72
2021/11/27 03:24:50;;;;;;;6.82;2.55;;;4.90;99.90;;;4.08;98.44;99200.94;4102212;28;20031;-72
2021/11/27 03:26:51;;;;;;;5.13;2.13;;;4.90;99.90;;;4.03;98.26;99175.34;4133823;28;20122;-72
2021/11/27 03:28:52;;;;;;;7.05;2.70;;;4.80;99.90;;;4.09;98.65;99166.06;4119402;28;20393;-72
2021/11/27 03:30:53;;;;;;;7.72;3.08;;;4.80;99.90;;;3.97;98.53;99160.28;4102196;28;20035;-72
2021/11/27 03:32:54;;;;;;;5.68;3.20;;;4.60;99.90;;;4.05;99.11;99142.06;4134211;28;20094;-72
2021/11/27 03:34:55;;;;;;;9.38;4.05;;;4.70;99.90;;;4.09;98.16;99132.94;4119161;28;20042;-72
2021/11/27 03:36:56;;;;;;;6.68;4.28;;;4.50;99.90;;;3.93;99.06;99148.50;4119313;28;20065;-72
2021/11/27 03:38:58;;;;;;;9.88;4.13;;;4.50;99.90;;;3.81;98.78;99136.69;4102161;28;20035;-72
2021/11/27 03:40:59;;;;;;;5.75;3.42;;;4.40;99.90;;;3.84;98.69;99144.22;4118958;28;20375;-72
2021/11/27 03:43:00;;;;;;;7.00;3.08;;;4.30;99.90;;;3.69;98.90;99138.72;4119168;28;20398;-72
2021/11/27 03:45:04;;;;;;;7.22;2.97;;;4.30;99.90;;;3.78;99.01;99134.38;4102221;28;20447;-72
2021/11/27 03:47:06;;;;;;;10.25;3.70;;;4.30;99.90;;;3.88;97.69;99132.50;4102096;28;20094;-72
2021/11/27 03:49:07;;;;;;;6.75;2.58;;;4.30;99.90;;;4.10;96.13;99133.78;4117950;28;20118;-72
2021/11/27 03:51:17;;;;;;;5.95;2.53;;;4.30;99.90;;;3.86;96.46;99131.81;4118983;28;20035;-72
2021/11/27 03:53:33;;;;;;;7.93;2.90;;;4.30;99.90;;;3.89;97.38;99141.94;4102368;28;20127;-72
2021/11/27 03:55:34;;;;;;;7.45;3.20;;;4.30;99.90;;;3.97;96.46;99143.81;4102871;28;20064;-72
2021/11/27 03:57:35;;;;;;;9.35;2.65;;;4.30;99.90;;;3.84;97.44;99145.03;4101673;28;20062;-72
2021/11/27 03:59:36;;;;;;;7.40;2.60;;;4.30;99.90;;;3.70;98.30;99152.59;4119881;28;20031;-72
2021/11/27 04:01:37;;;;;;;8.13;3.25;;;4.30;99.90;;;3.62;98.58;99162.94;4088842;29;20029;-72
2021/11/27 04:03:41;;;;;;;7.57;3.35;;;4.30;99.90;;;3.54;98.95;99178.50;4136899;28;20031;-72
2021/11/27 04:05:47;;;;;;;7.20;3.15;;;4.30;99.90;;;3.27;100.00;99177.63;4104667;28;20110;-72
2021/11/27 04:07:57;;;;;;;6.63;4.13;;;4.30;99.90;;;3.63;99.34;99188.03;4110530;28;20042;-72
2021/11/27 04:09:58;;;;;;;7.32;3.13;;;4.30;99.90;;;3.92;98.15;99194.63;4114785;28;20031;-72
2021/11/27 04:11:59;;;;;;;4.85;2.30;;;4.40;99.90;;;4.02;96.07;99184.13;4120313;28;20586;-72
2021/11/27 04:14:00;;;;;;;7.95;3.55;;;4.50;99.90;;;3.97;96.92;99177.72;4136406;28;20081;-72
2021/11/27 04:16:02;;;;;;;7.15;3.28;;;4.60;99.90;;;4.07;95.17;99171.44;4120655;28;20027;-72
2021/11/27 04:18:03;;;;;;;6.30;2.50;;;4.60;99.90;;;4.01;95.09;99173.81;4137793;28;20049;-72
2021/11/27 04:20:05;;;;;;;6.28;3.17;;;4.70;99.90;;;3.79;95.58;99182.97;4120418;28;20114;-72
2021/11/27 04:22:06;;;;;;;6.20;2.38;;;4.70;99.90;;;3.98;96.05;99188.00;4143758;28;20030;-72
2021/11/27 04:24:07;;;;;;;7.43;2.47;;;4.70;99.90;;;4.18;95.44;99196.47;4104611;28;20034;-72
2021/11/27 04:26:08;;;;;;;6.82;2.38;;;4.80;99.90;;;4.21;94.42;99196.94;4121419;28;20498;-72
2021/11/27 04:28:10;;;;;;;4.20;1.98;;;4.80;99.90;;;4.12;93.01;99205.69;4121625;28;20410;-72
2021/11/27 04:30:16;;;;;;;5.68;2.30;;;4.90;99.90;;;4.26;93.60;99213.00;4107741;28;20023;-72
2021/11/27 04:32:17;;;;;;;5.60;2.40;;;4.90;99.90;;;4.24;94.79;99191.44;4120625;28;20062;-72
2021/11/27 04:34:18;;;;;;;5.88;2.38;;;5.00;99.90;;;3.89;96.49;99189.72;4120390;28;20023;-72
2021/11/27 04:36:20;;;;;;;9.88;2.42;;;4.90;99.90;;;4.04;96.10;99179.56;4152611;28;20018;-72
2021/11/27 04:38:22;;;;;;;4.60;2.33;;;4.90;99.90;;;4.09;97.34;99179.91;4120492;28;20038;-72
2021/11/27 04:40:24;;;;;;;7.40;2.85;;;5.00;99.90;;;4.13;97.21;99170.00;4120387;28;20035;-72
2021/11/27 04:42:25;;;;;;;9.50;2.38;;;4.90;99.90;;;4.01;98.15;99164.22;4137360;28;20042;-72
2021/11/27 04:44:26;;;;;;;5.20;2.35;;;4.90;99.90;;;3.94;98.16;99162.38;4120235;28;20038;-72
2021/11/27 04:46:27;;;;;;;8.18;3.47;;;4.90;99.90;;;3.60;100.00;99157.06;4152659;28;20034;-72
2021/11/27 04:48:29;;;;;;;5.63;2.35;;;4.70;99.90;;;3.77;99.05;99144.00;4137600;28;20034;-72
2021/11/27 04:50:32;;;;;;;5.15;2.22;;;4.60;99.90;;;3.66;99.23;99130.38;4137429;28;20034;-71
2021/11/27 04:52:33;;;;;;;8.75;4.15;;;4.50;99.90;;;3.52;100.00;99133.53;4137322;28;20128;-72
2021/11/27 04:54:36;;;;;;;4.40;2.83;;;4.50;99.90;;;3.39;100.00;99126.09;4120231;28;20034;-72
2021/11/27 04:56:37;;;;;;;5.00;2.40;;;4.40;99.90;;;3.56;100.00;99134.84;4120025;28;20037;-72
2021/11/27 04:58:38;;;;;;;4.60;1.95;;;4.40;99.90;;;3.39;100.00;99120.06;4152419;28;20030;-71
2021/11/27 05:00:46;;;;;;;4.32;2.17;;;4.30;99.90;;;3.43;100.00;99130.03;4119737;28;20090;-72
2021/11/27 05:02:47;;;;;;;10.07;2.78;;;4.20;99.90;;;3.55;100.00;99133.22;4136179;28;20097;-72
2021/11/27 05:04:48;;;;;;;7.22;2.75;;;4.20;99.90;;;3.55;100.00;99122.81;4103911;29;20027;-72
2021/11/27 05:06:49;;;;;;;4.38;1.98;;;4.10;99.90;;;3.47;100.00;99138.34;4137077;28;20125;-71
2021/11/27 05:08:50;;;;;;;4.15;2.03;;;4.10;99.90;;;3.40;100.00;99125.13;4136918;28;20065;-72
2021/11/27 05:10:51;;;;;;;8.48;2.67;;;4.10;99.90;;;3.61;100.00;99132.63;4118856;28;20518;-72
2021/11/27 05:12:53;;;;;;;3.20;1.70;;;4.20;99.90;;;3.45;100.00;99128.09;4135508;28;20042;-72
2021/11/27 05:14:54;;;;;;;3.08;1.90;;;4.20;99.90;;;3.63;100.00;99133.28;4135570;28;20061;-72
2021/11/27 05:16:55;;;;;;;3.03;2.70;;;4.30;99.90;;;3.59;100.00;99143.19;4119638;28;20486;-71
2021/11/27 05:18:56;;;;;;;5.90;2.22;;;4.20;99.90;;;3.55;100.00;99141.88;4137065;28;20031;-71
2021/11/27 05:20:57;;;;;;;4.32;1.90;;;4.20;99.90;;;3.40;100.00;99134.72;4119660;28;20026;-71
2021/11/27 05:22:59;;;;;;;4.75;2.03;;;4.20;99.90;;;3.39;100.00;99143.50;4120781;28;20030;-72
2021/11/27 05:25:01;;;;;;;2.85;1.92;;;4.20;99.90;;;3.50;100.00;99148.47;4103475;28;20106;-72
2021/11/27 05:27:02;;;;;;;3.55;1.60;;;4.30;99.90;;;3.50;100.00;99153.69;4120596;28;20019;-72
2021/11/27 05:29:03;;;;;;;2.67;1.92;;;4.30;99.90;;;3.26;100.00;99160.34;4103575;28;20059;-72
2021/11/27 05:31:04;;;;;;;3.05;1.60;;;4.30;99.90;;;3.40;100.00;99173.81;4135594;28;20113;-72
2021/11/27 05:33:09;;;;;;;2.88;1.77;;;4.30;99.90;;;3.46;100.00;99179.28;4120561;28;20069;-72
2021/11/27 05:35:11;;;;;;;6.35;1.85;;;4.30;99.90;;;3.50;100.00;99179.75;4120669;28;20054;-72
2021/11/27 05:37:12;;;;;;;2.67;1.70;;;4.40;99.90;;;3.50;100.00;99171.94;4120809;28;20049;-71
2021/11/27 05:39:13;;;;;;;7.15;1.98;;;4.40;99.90;;;3.55;100.00;99164.53;4103423;28;20114;-72
2021/11/27 05:41:16;;;;;;;3.70;1.80;;;4.50;99.90;;;3.57;100.00;99178.22;4135025;28;20034;-72
2021/11/27 05:43:17;;;;;;;5.65;2.05;;;4.50;99.90;;;3.57;100.00;99173.81;4103437;28;20117;-72
2021/11/27 05:45:19;;;;;;;6.18;1.95;;;4.50;99.90;;;3.59;100.00;99166.66;4103322;28;20527;-72
2021/11/27 05:47:20;;;;;;;2.08;1.80;;;4.60;99.90;;;3.55;100.00;99169.72;4103312;28;20023;-71
2021/11/27 05:49:21;;;;;;;1.92;1.42;;;4.50;99.90;;;3.65;100.00;99160.84;4103069;28;20570;-72
2021/11/27 05:51:22;;;;;;;3.95;1.58;;;4.50;99.90;;;3.67;100.00;99152.88;4120353;28;20066;-72
2021/11/27 05:53:23;;;;;;;2.75;1.88;;;4.50;99.90;;;3.45;100.00;99148.94;4103240;28;20487;-71
2021/11/27 05:55:24;;;;;;;4.38;2.17;;;4.50;99.90;;;3.57;100.00;99149.53;4103139;28;20023;-71
2021/11/27 05:57:25;;;;;;;3.70;1.60;;;4.50;99.90;;;3.68;100.00;99149.28;4119933;28;20486;-72
2021/11/27 05:59:26;;;;;;;2.58;1.98;;;4.50;99.90;;;3.64;100.00;99156.63;4120264;28;20030;-72
2021/11/27 06:01:27;;;;;;;2.17;1.60;;;4.50;99.90;;;3.60;100.00;99157.88;4120139;28;20094;-72
2021/11/27 06:03:28;;;;;;;1.88;1.60;;;4.50;99.90;;;3.54;100.00;99147.22;4120095;28;20491;-71
2021/11/27 06:05:29;;;;;;;3.30;1.73;;;4.50;99.90;;;3.39;100.00;99151.31;4103011;28;20042;-72
2021/11/27 06:07:30;;;;;;;3.47;2.13;;;4.50;99.90;;;3.42;100.00;99144.03;4106314;28;20086;-72
2021/11/27 06:09:31;;;;;;;4.40;1.83;;;4.50;99.90;;;3.34;100.00;99149.97;4118957;28;20023;-71
2021/11/27 06:11:32;;;;;;;2.67;1.83;;;4.30;99.90;;;3.49;100.00;99152.09;4118649;28;20034;-72
2021/11/27 06:13:34;;;;;;;3.72;1.92;;;4.40;99.90;;;3.44;100.00;99151.69;4135775;28;20062;-71
2021/11/27 06:15:35;;;;;;;6.25;1.77;;;4.30;99.90;;;3.41;100.00;99158.03;4118993;28;20051;-71
2021/11/27 06:17:35;;;;;;;1.67;1.50;;;4.30;99.90;;;3.45;100.00;99145.50;4118926;28;20453;-71
2021/11/27 06:19:36;;;;;;;2.47;1.63;;;4.40;99.90;;;3.39;100.00;99165.19;4136095;28;20026;-72
2021/11/27 06:21:37;;;;;;;2.08;1.70;;;4.30;99.90;;;3.33;100.00;99153.56;4130741;28;20057;-71
2021/11/27 06:23:39;;;;;;;3.47;1.98;;;4.30;99.90;;;3.26;100.00;99149.91;4102333;28;20095;-72
2021/11/27 06:25:40;;;;;;;3.88;1.75;;;4.60;99.90;;;3.27;100.00;99153.34;4102575;28;20117;-72
2021/11/27 06:27:41;;;;;;;3.22;2.17;;;4.30;99.90;;;3.57;100.00;99157.34;4102784;28;20447;-72
2021/11/27 06:29:42;;;;;;;4.43;2.25;;;4.30;99.90;;;3.52;100.00;99159.59;4119915;28;20035;-72
2021/11/27 06:31:42;;;;;;;5.90;2.03;;;4.30;99.90;;;3.46;100.00;99147.16;4119505;28;20026;-72
2021/11/27 06:33:44;;;;;;;2.72;1.95;;;4.40;99.90;;;3.47;100.00;99147.00;4102803;28;20042;-72
2021/11/27 06:35:45;;;;;;;2.70;1.50;;;4.40;99.90;;;3.21;100.00;99146.94;4119737;28;20468;-71
2021/11/27 06:37:46;;;;;;;3.58;1.80;;;4.30;99.90;;;3.31;100.00;99152.09;4119713;28;20030;-71
2021/11/27 06:39:48;;;;;;;5.40;2.35;;;4.20;99.90;;;3.26;100.00;99141.28;4119536;28;20040;-71
2021/11/27 06:41:49;;;;;;;5.00;2.03;;;4.20;99.90;;;3.51;100.00;99147.53;4086328;29;20514;-72
2021/11/27 06:43:50;;;;;;;3.45;1.90;;;4.30;99.90;;;3.52;100.00;99157.00;4131842;28;20030;-72
2021/11/27 06:45:51;;;;;;;6.38;1.70;;;4.30;99.90;;;3.72;100.00;99168.88;4135845;28;20085;-72
2021/11/27 06:47:52;;;;;;;2.28;1.60;;;4.30;99.90;;;3.46;100.00;99168.84;4135556;28;20030;-71
2021/11/27 06:49:53;;;;;;;4.18;2.08;;;4.30;99.90;;;3.74;100.00;99172.16;4118481;28;20060;-72
2021/11/27 06:51:54;;;;;;;4.20;2.20;;;4.50;99.90;;;3.80;100.00;99169.75;4135627;28;20061;-72
2021/11/27 06:53:55;;;;;;;3.83;1.80;;;4.50;99.90;;;3.67;100.00;99173.75;4118437;28;20117;-71
2021/11/27 06:55:57;;;;;;;2.53;2.28;;;4.50;99.90;;;3.69;100.00;99163.97;4118158;28;20027;-72
2021/11/27 06:57:58;;;;;;;4.60;2.28;;;4.60;99.90;;;3.82;100.00;99167.03;4135797;28;20045;-72
2021/11/27 06:59:59;;;;;;;1.83;1.60;;;4.60;99.90;;;3.80;100.00;99168.94;4135704;28;20026;-72
2021/11/27 07:02:00;;;;;;;2.13;1.70;;;4.60;99.90;;;3.85;100.00;99177.16;4118211;28;20077;-72
2021/11/27 07:04:01;;;;;;;3.67;1.98;;;4.60;99.90;;;3.84;100.00;99173.72;4118347;28;20027;-72
2021/11/27 07:06:03;;;;;;;3.05;1.67;;;4.60;99.90;;;3.63;100.00;99172.41;4135800;28;20031;-72
2021/11/27 07:08:05;;;;;;;2.75;1.75;;;4.60;99.90;;;3.75;100.00;99179.84;4118364;28;20027;-72
2021/11/27 07:10:07;;;;;;;7.05;2.88;;;4.60;99.90;;;3.71;100.00;99185.50;4118500;28;20510;-72
2021/11/27 07:12:08;;;;;;;8.18;2.20;;;4.60;99.90;;;3.59;100.00;99195.34;4118061;28;20031;-72
2021/11/27 07:14:10;;;;;;;6.82;2.35;;;4.60;99.90;;;3.83;100.00;99174.69;4118298;28;20054;-72
2021/11/27 07:16:11;;;;;;;5.10;1.85;;;4.60;99.90;;;3.96;100.00;99189.94;4150472;28;20378;-72
2021/11/27 07:18:11;;;;;;;3.35;2.15;;;4.70;99.90;;;3.92;100.00;99181.59;4118392;28;20087;-72
2021/11/27 07:20:13;;;;;;;5.45;3.13;;;4.70;99.90;;;3.98;100.00;99176.72;4119357;28;20038;-72
2021/11/27 07:22:14;;;;;;;6.93;2.50;;;4.00;99.90;;;4.05;100.00;99185.59;4109597;28;20036;-72
2021/11/27 07:24:15;;;;;;;4.20;2.40;;;4.80;99.90;;;3.83;100.00;99189.50;4102443;28;20028;-72
2021/11/27 07:26:16;;;;;;;11.73;3.00;;;4.70;99.90;;;4.01;100.00;99187.69;4102166;28;20483;-72
2021/11/27 07:28:17;;;;;;;5.60;2.30;;;4.70;99.90;;;4.11;100.00;99193.63;4118048;28;20095;-72
2021/11/27 07:30:17;;;;;;;10.50;3.83;;;4.80;99.90;;;4.17;100.00;99179.16;4102399;28;20051;-72
2021/11/27 07:32:18;;;;;;;9.98;2.50;;;4.90;99.90;;;4.28;100.00;99179.72;4103420;28;20023;-72
2021/11/27 07:34:19;;;;;;;7.80;2.78;;;4.90;99.90;;;4.31;100.00;99189.03;4102555;28;20499;-72
2021/11/27 07:36:20;;;;;;;7.90;3.00;;;4.90;99.90;;;4.33;100.00;99193.13;4106452;28;20035;-72
2021/11/27 07:38:21;;;;;;;9.27;2.70;;;5.00;99.90;;;4.38;100.00;99201.31;4106511;28;20059;-72
2021/11/27 07:40:23;;;;;;;7.00;3.90;;;5.10;99.90;;;4.38;100.00;99203.13;4106386;28;20365;-72
2021/11/27 07:42:24;;;;;;;6.30;2.53;;;5.10;99.90;;;4.21;100.00;99217.84;4105037;28;20486;-72
2021/11/27 07:44:25;;;;;;;8.75;3.58;;;5.10;99.90;;;4.21;100.00;99215.22;4106066;28;20031;-72
2021/11/27 07:46:27;;;;;;;9.48;2.88;;;5.10;99.90;;;4.28;100.00;99216.25;4111425;28;20037;-71
2021/11/27 07:48:31;;;;;;;6.90;2.78;;;5.10;99.90;;;4.41;100.00;99215.84;4105050;28;20027;-72
2021/11/27 07:50:33;;;;;;;5.13;2.90;;;5.20;99.90;;;4.53;100.00;99230.28;4089493;29;20036;-72
2021/11/27 07:52:34;;;;;;;4.93;2.40;;;5.20;99.90;;;4.51;100.00;99215.75;4104909;28;20590;-72
2021/11/27 07:54:35;;;;;;;5.88;2.38;;;5.20;99.90;;;4.48;100.00;99222.09;4106236;28;20041;-72
2021/11/27 07:56:36;;;;;;;9.57;3.45;;;5.20;99.90;;;4.25;100.00;99216.56;4105882;28;20075;-72
2021/11/27 07:58:37;;;;;;;4.20;2.55;;;5.30;99.90;;;4.50;100.00;99240.22;4104851;28;20133;-72
2021/11/27 08:00:38;;;;;;;10.95;3.83;;;4.70;99.90;;;4.61;100.00;99226.88;4088616;29;20028;-72
2021/11/27 08:02:40;;;;;;;9.25;3.78;;;5.30;99.90;;;4.55;100.00;99228.34;4104904;28;20035;-72
2021/11/27 08:04:41;;;;;;;8.68;3.22;;;6.10;99.90;;;4.37;100.00;99241.44;4106055;28;20027;-71
2021/11/27 08:06:41;;;;;;;8.95;2.70;;;5.30;99.90;;;4.42;100.00;99238.38;4105923;28;20038;-72
2021/11/27 08:08:42;;;;;;;8.63;2.38;;;5.40;99.90;;;4.58;100.00;99242.88;4117581;28;20545;-72
2021/11/27 08:10:43;;;;;;;8.15;2.83;;;5.40;99.90;;;4.40;100.00;99246.34;4120629;28;20038;-72
2021/11/27 08:12:44;;;;;;;9.55;3.00;;;4.80;99.90;;;4.58;100.00;99245.47;4121941;28;20034;-72
2021/11/27 08:14:46;;;;;;;8.27;2.75;;;5.40;99.90;;;4.43;100.00;99246.06;4120268;28;20059;-71
2021/11/27 08:16:50;;;;;;;8.32;2.78;;;5.40;99.90;;;4.51;100.00;99253.09;4137966;28;20030;-72
2021/11/27 08:18:51;;;;;;;14.85;4.28;;;5.40;99.90;;;4.57;100.00;99256.91;4115659;28;20515;-72
2021/11/27 08:20:52;;;;;;;9.85;3.20;;;5.50;99.90;;;4.61;100.00;99261.66;4121297;28;20035;-72
2021/11/27 08:22:53;;;;;;;9.60;3.17;;;5.50;99.90;;;4.80;100.00;99261.47;4120238;28;20031;-72
2021/11/27 08:24:54;;;;;;;12.50;2.95;;;5.60;99.90;;;5.00;100.00;99257.63;4120272;28;20027;-72
2021/11/27 08:26:54;;;;;;;7.18;2.92;;;5.70;99.90;;;4.94;100.00;99262.66;4121567;28;20077;-72
2021/11/27 08:28:55;;;;;;;13.73;2.83;;;5.70;99.90;;;5.06;100.00;99263.19;4121704;28;20466;-72
2021/11/27 08:30:57;;;;;;;12.25;2.95;;;5.80;99.90;;;5.01;100.00;99267.13;4121505;28;20491;-72
2021/11/27 08:32:58;;;;;;;12.80;3.65;;;5.90;99.90;;;5.09;100.00;99271.53;4120329;28;20081;-72
2021/11/27 08:34:59;;;;;;;13.13;3.80;;;5.80;99.90;;;5.17;100.00;99279.41;4136523;28;20026;-72
2021/11/27 08:37:00;;;;;;;10.15;2.75;;;5.90;99.90;;;5.00;100.00;99275.09;4120180;28;20058;-72
2021/11/27 08:39:01;;;;;;;10.50;4.53;;;5.80;99.90;;;5.01;100.00;99285.41;4120280;28;20113;-72
2021/11/27 08:41:03;;;;;;;9.02;3.88;;;5.90;99.90;;;5.11;100.00;99292.31;4136103;28;20109;-72